createdAt,value
2023-01-08T00:02:03.836Z,10.23
2023-01-08T00:04:39.016Z,11.20
2023-01-08T00:07:07.082Z,10.88
2023-01-08T00:09:34.749Z,9.60
2023-01-08T00:12:02.842Z,9.68
2023-01-08T00:14:31.653Z,10.85
2023-01-08T00:16:59.828Z,10.68
2023-01-08T00:19:28.087Z,11.07
2023-01-08T00:21:55.848Z,10.77
2023-01-08T00:24:23.552Z,10.45
2023-01-08T00:26:51.281Z,10.38
2023-01-08T00:29:18.976Z,10.43
2023-01-08T00:31:47.484Z,11.27
2023-01-08T00:34:15.554Z,10.60
2023-01-08T00:36:43.395Z,10.27
2023-01-08T00:39:11.141Z,10.70
2023-01-08T00:41:39.030Z,11.02
2023-01-08T00:44:07.143Z,10.73
2023-01-08T00:46:35.517Z,10.48
2023-01-08T00:49:03.740Z,10.68
2023-01-08T00:51:31.674Z,9.90
2023-01-08T00:53:59.834Z,10.00
2023-01-08T00:56:29.094Z,10.15
2023-01-08T00:58:56.821Z,9.13
2023-01-08T01:01:24.719Z,11.00
2023-01-08T01:03:53.033Z,8.95
2023-01-08T01:06:24.159Z,9.98
2023-01-08T01:11:29.669Z,9.55
2023-01-08T01:13:57.813Z,10.13
2023-01-08T01:16:25.712Z,9.02
2023-01-08T01:18:55.080Z,11.57
2023-01-08T01:21:27.691Z,9.05
2023-01-08T01:23:56.214Z,9.90
2023-01-08T01:26:25.095Z,8.48
2023-01-08T01:28:54.988Z,9.43
2023-01-08T01:31:23.559Z,9.20
2023-01-08T01:33:51.592Z,8.77
2023-01-08T01:36:20.500Z,9.25
2023-01-08T01:38:49.183Z,8.02
2023-01-08T01:41:27.828Z,9.20
2023-01-08T01:43:57.552Z,8.07
2023-01-08T01:46:28.255Z,9.57
2023-01-08T01:48:58.152Z,9.60
2023-01-08T01:51:30.514Z,8.60
2023-01-08T01:53:58.452Z,9.73
2023-01-08T01:56:27.510Z,9.70
2023-01-08T01:58:55.914Z,9.82
2023-01-08T02:01:25.390Z,9.10
2023-01-08T02:03:53.488Z,9.57
2023-01-08T02:06:33.916Z,8.93
2023-01-08T02:09:13.536Z,10.70
2023-01-08T02:12:13.609Z,9.00
2023-01-08T02:14:49.317Z,8.75
2023-01-08T02:17:18.985Z,9.82
2023-01-08T02:19:49.367Z,10.25
2023-01-08T02:22:36.850Z,8.88
2023-01-08T02:25:17.363Z,9.48
2023-01-08T02:27:46.458Z,8.52
2023-01-08T02:30:14.383Z,9.13
2023-01-08T02:32:43.475Z,9.57
2023-01-08T02:35:11.888Z,8.65
2023-01-08T02:37:39.918Z,8.45
2023-01-08T02:40:15.669Z,9.23
2023-01-08T02:43:02.581Z,9.45
2023-01-08T02:45:35.304Z,8.05
2023-01-08T02:48:22.230Z,9.73
2023-01-08T02:51:02.985Z,7.97
2023-01-08T02:53:33.332Z,9.45
2023-01-08T02:56:17.906Z,7.90
2023-01-08T02:58:48.178Z,8.82
2023-01-08T03:01:17.476Z,9.57
2023-01-08T03:03:47.825Z,8.50
2023-01-08T03:06:17.639Z,8.47
2023-01-08T03:08:47.743Z,8.63
2023-01-08T03:11:16.617Z,8.30
2023-01-08T03:14:03.329Z,9.63
2023-01-08T03:16:36.598Z,9.57
2023-01-08T03:19:16.133Z,9.30
2023-01-08T03:21:45.899Z,8.68
2023-01-08T03:24:15.496Z,9.05
2023-01-08T03:26:44.763Z,8.65
2023-01-08T03:29:16.304Z,11.55
2023-01-08T03:31:45.524Z,10.18
2023-01-08T03:34:15.012Z,11.40
2023-01-08T03:36:44.323Z,10.43
2023-01-08T03:39:17.507Z,9.88
2023-01-08T03:41:46.090Z,9.98
2023-01-08T03:44:13.840Z,9.48
2023-01-08T03:46:45.304Z,11.35
2023-01-08T03:49:13.562Z,10.45
2023-01-08T03:51:41.922Z,10.63
2023-01-08T03:54:11.964Z,10.65
2023-01-08T03:56:39.639Z,10.05
2023-01-08T03:59:07.624Z,9.35
2023-01-08T04:01:35.719Z,9.20
2023-01-08T04:04:03.440Z,10.18
2023-01-08T04:06:31.212Z,10.35
2023-01-08T04:08:59.193Z,10.55
2023-01-08T04:11:27.032Z,10.98
2023-01-08T04:13:54.679Z,10.13
2023-01-08T04:16:23.488Z,10.52
2023-01-08T04:18:51.093Z,11.50
2023-01-08T04:21:18.896Z,9.38
2023-01-08T04:23:46.583Z,11.18
2023-01-08T04:26:14.448Z,10.80
2023-01-08T04:28:42.797Z,10.00
2023-01-08T04:31:11.259Z,10.50
2023-01-08T04:33:39.254Z,10.90
2023-01-08T04:36:06.968Z,10.23
2023-01-08T04:38:34.593Z,9.82
2023-01-08T04:41:03.891Z,11.05
2023-01-08T04:43:32.265Z,9.73
2023-01-08T04:46:00.714Z,10.20
2023-01-08T04:48:29.379Z,10.15
2023-01-08T04:50:58.971Z,8.90
2023-01-08T04:53:27.259Z,11.20
2023-01-08T04:55:54.897Z,11.48
2023-01-08T04:58:22.873Z,10.20
2023-01-08T05:00:50.686Z,12.38
2023-01-08T05:03:18.671Z,12.43
2023-01-08T05:05:48.604Z,13.25
2023-01-08T05:10:46.352Z,12.05
2023-01-08T05:13:14.024Z,12.93
2023-01-08T05:15:41.971Z,12.27
2023-01-08T05:18:10.534Z,12.43
2023-01-08T05:20:38.322Z,12.23
2023-01-08T05:23:06.059Z,12.77
2023-01-08T05:25:34.320Z,12.02
2023-01-08T05:28:02.129Z,11.60
2023-01-08T05:30:30.150Z,11.52
2023-01-08T05:32:57.850Z,13.80
2023-01-08T05:35:25.554Z,13.15
2023-01-08T05:37:53.167Z,12.63
2023-01-08T05:40:20.938Z,12.70
2023-01-08T05:42:48.578Z,12.63
2023-01-08T05:45:16.996Z,13.43
2023-01-08T05:47:44.772Z,12.23
2023-01-08T05:50:12.487Z,11.32
2023-01-08T05:52:40.379Z,11.13
2023-01-08T05:55:08.255Z,12.52
2023-01-08T05:57:35.973Z,12.25
2023-01-08T06:00:05.219Z,11.77
2023-01-08T06:02:39.502Z,12.02
2023-01-08T06:05:07.476Z,10.32
2023-01-08T06:07:35.491Z,9.77
2023-01-08T06:10:04.298Z,10.15
2023-01-08T06:12:32.108Z,9.85
2023-01-08T06:14:59.907Z,9.88
2023-01-08T06:17:27.535Z,9.25
2023-01-08T06:19:55.237Z,8.70
2023-01-08T06:22:23.045Z,8.30
2023-01-08T06:24:50.833Z,8.32
2023-01-08T06:27:18.794Z,8.40
2023-01-08T06:29:46.497Z,8.82
2023-01-08T06:32:14.283Z,7.90
2023-01-08T06:34:41.932Z,7.93
2023-01-08T06:37:09.562Z,7.97
2023-01-08T06:39:37.689Z,8.82
2023-01-08T06:42:05.294Z,7.82
2023-01-08T06:44:32.947Z,7.72
2023-01-08T06:47:00.714Z,8.60
2023-01-08T06:49:28.380Z,8.45
2023-01-08T06:51:57.193Z,8.75
2023-01-08T06:54:25.237Z,8.27
2023-01-08T06:56:54.407Z,8.75
2023-01-08T06:59:22.517Z,10.65
2023-01-08T07:01:50.997Z,9.60
2023-01-08T07:04:19.345Z,9.68
2023-01-08T07:06:47.319Z,10.57
2023-01-08T07:09:15.810Z,9.55
2023-01-08T07:11:43.683Z,10.93
2023-01-08T07:14:12.371Z,10.65
2023-01-08T07:16:40.154Z,10.40
2023-01-08T07:19:08.040Z,11.43
2023-01-08T07:21:35.715Z,11.35
2023-01-08T07:24:04.318Z,12.02
2023-01-08T07:26:32.259Z,10.50
2023-01-08T07:28:59.911Z,10.73
2023-01-08T07:31:27.705Z,11.07
2023-01-08T07:33:55.687Z,9.85
2023-01-08T07:36:24.404Z,10.18
2023-01-08T07:38:52.305Z,10.32
2023-01-08T07:41:19.999Z,9.68
2023-01-08T07:43:48.557Z,10.40
2023-01-08T07:46:20.173Z,11.02
2023-01-08T07:48:47.960Z,9.70
2023-01-08T07:51:15.722Z,9.30
2023-01-08T07:53:43.927Z,10.43
2023-01-08T07:56:12.080Z,9.55
2023-01-08T07:58:39.996Z,9.90
2023-01-08T08:01:12.348Z,8.40
2023-01-08T08:03:41.298Z,9.88
2023-01-08T08:06:09.488Z,10.13
2023-01-08T08:08:37.816Z,15.52
2023-01-08T08:11:05.682Z,10.52
2023-01-08T08:13:33.699Z,9.63
2023-01-08T08:16:05.270Z,10.10
2023-01-08T08:18:33.098Z,9.80
2023-01-08T08:21:00.888Z,9.55
2023-01-08T08:23:28.844Z,9.13
2023-01-08T08:25:57.340Z,8.73
2023-01-08T08:28:25.288Z,9.93
2023-01-08T08:30:52.989Z,9.68
2023-01-08T08:33:21.357Z,9.55
2023-01-08T08:35:52.876Z,9.73
2023-01-08T08:38:23.167Z,10.00
2023-01-08T08:43:19.338Z,10.65
2023-01-08T08:45:47.331Z,11.38
2023-01-08T08:48:17.012Z,12.18
2023-01-08T08:50:45.073Z,11.27
2023-01-08T08:53:12.797Z,11.43
2023-01-08T08:55:40.652Z,11.30
2023-01-08T08:58:13.304Z,11.75
2023-01-08T09:00:41.954Z,11.80
2023-01-08T09:03:16.344Z,10.88
2023-01-08T09:05:44.531Z,11.40
2023-01-08T09:08:12.871Z,12.27
2023-01-08T09:10:42.475Z,11.65
2023-01-08T09:13:10.487Z,12.85
2023-01-08T09:15:38.606Z,12.05
2023-01-08T09:18:06.554Z,11.80
2023-01-08T09:20:34.255Z,13.23
2023-01-08T09:23:03.425Z,12.73
2023-01-08T09:25:31.462Z,12.63
2023-01-08T09:28:06.683Z,12.10
2023-01-08T09:30:34.483Z,12.07
2023-01-08T09:33:05.011Z,11.77
2023-01-08T09:35:34.332Z,12.80
2023-01-08T09:38:01.972Z,12.27
2023-01-08T09:40:33.097Z,11.82
2023-01-08T09:45:30.873Z,11.32
2023-01-08T09:48:06.650Z,13.50
2023-01-08T09:50:45.214Z,11.77
2023-01-08T09:53:23.587Z,11.63
2023-01-08T09:59:11.145Z,13.63
2023-01-08T10:04:37.854Z,11.57
2023-01-08T10:07:32.022Z,11.27
2023-01-08T10:15:55.421Z,12.02
2023-01-08T10:21:22.581Z,13.02
2023-01-08T10:26:52.645Z,14.52
2023-01-08T10:32:25.088Z,13.07
2023-01-08T10:34:56.876Z,12.25
2023-01-08T10:40:34.840Z,11.23
2023-01-08T10:51:34.003Z,11.40
2023-01-08T10:54:15.411Z,10.05
2023-01-08T10:56:44.549Z,9.38
2023-01-08T10:59:19.845Z,9.32
2023-01-08T11:01:49.912Z,9.27
2023-01-08T11:04:28.119Z,9.40
2023-01-08T11:14:00.853Z,8.38
2023-01-08T11:16:38.290Z,8.38
2023-01-08T11:19:08.849Z,8.77
2023-01-08T11:27:49.773Z,7.25
2023-01-08T11:42:01.783Z,8.73
2023-01-08T11:47:49.582Z,9.35
2023-01-08T11:53:41.599Z,7.90
2023-01-08T11:59:17.574Z,9.00
2023-01-08T12:01:51.375Z,8.30
2023-01-08T13:05:24.183Z,7.20
2023-01-08T13:07:54.145Z,7.20
2023-01-08T13:10:38.020Z,7.20
2023-01-08T13:13:06.799Z,7.65
2023-01-08T13:15:36.807Z,8.35
2023-01-08T13:18:08.684Z,7.78
2023-01-08T13:20:36.919Z,7.53
2023-01-08T13:23:05.742Z,8.27
2023-01-08T13:25:35.998Z,6.90
2023-01-08T13:28:23.010Z,7.07
2023-01-08T13:30:51.146Z,7.68
2023-01-08T13:33:43.608Z,7.00
2023-01-08T13:36:17.903Z,7.03
2023-01-08T13:38:46.394Z,7.72
2023-01-08T13:41:40.871Z,7.60
2023-01-08T13:44:29.989Z,7.50
2023-01-08T13:46:59.953Z,8.65
2023-01-08T13:49:29.800Z,8.35
2023-01-08T13:51:57.775Z,9.05
2023-01-08T13:54:38.628Z,8.23
2023-01-08T13:57:13.808Z,8.45
2023-01-08T13:59:44.285Z,9.45
2023-01-08T14:02:24.856Z,8.90
2023-01-08T14:04:53.207Z,9.55
2023-01-08T14:07:21.710Z,10.65
2023-01-08T14:09:50.286Z,9.25
2023-01-08T14:12:21.221Z,9.50
2023-01-08T14:14:57.785Z,10.13
2023-01-08T14:17:30.688Z,8.93
2023-01-08T14:20:00.011Z,8.95
2023-01-08T14:22:32.449Z,9.80
2023-01-08T14:25:07.024Z,9.18
2023-01-08T14:27:35.465Z,10.32
2023-01-08T14:30:03.583Z,10.00
2023-01-08T14:32:31.819Z,10.75
2023-01-08T14:35:06.676Z,9.85
2023-01-08T14:37:34.601Z,10.07
2023-01-08T14:40:02.908Z,10.52
2023-01-08T14:42:43.468Z,8.85
2023-01-08T14:45:33.874Z,8.65
2023-01-08T14:48:15.039Z,9.07
2023-01-08T14:50:44.832Z,9.32
2023-01-08T14:53:15.656Z,9.70
2023-01-08T14:55:45.698Z,9.90
2023-01-08T14:58:15.942Z,9.30
2023-01-08T15:00:44.699Z,9.23
2023-01-08T15:06:30.044Z,8.55
2023-01-08T15:08:59.572Z,8.27
2023-01-08T15:11:32.760Z,8.13
2023-01-08T15:14:01.479Z,7.95
2023-01-08T15:22:03.065Z,8.65
2023-01-08T15:24:36.277Z,7.82
2023-01-08T15:27:11.087Z,8.18
2023-01-08T15:29:42.867Z,8.50
2023-01-08T15:32:19.091Z,9.57
2023-01-08T15:34:47.396Z,8.60
2023-01-08T15:43:03.558Z,8.57
2023-01-08T15:51:00.739Z,8.40
2023-01-08T15:53:29.945Z,8.70
2023-01-08T16:01:24.191Z,9.43
2023-01-08T16:03:52.082Z,8.50
2023-01-08T16:06:20.239Z,8.70
2023-01-08T16:08:48.237Z,9.05
2023-01-08T16:11:18.052Z,8.38
2023-01-08T16:13:46.728Z,8.32
2023-01-08T16:16:16.156Z,8.90
2023-01-08T16:18:47.257Z,7.80
2023-01-08T16:23:43.043Z,8.63
2023-01-08T16:26:14.144Z,8.48
2023-01-08T16:31:10.697Z,8.55
2023-01-08T16:33:38.630Z,8.02
2023-01-08T16:36:09.291Z,7.93
2023-01-08T16:38:37.355Z,8.77
2023-01-08T16:41:05.756Z,8.45
2023-01-08T16:43:39.477Z,6.90
2023-01-08T16:46:12.552Z,8.90
2023-01-08T16:48:41.952Z,8.25
2023-01-08T16:51:10.612Z,7.75
2023-01-08T16:53:39.399Z,7.53
2023-01-08T16:56:07.552Z,8.93
2023-01-08T16:58:37.116Z,9.38
2023-01-08T17:01:09.652Z,9.00
2023-01-08T17:03:37.844Z,8.38
2023-01-08T17:06:07.104Z,8.65
2023-01-08T17:08:40.074Z,9.65
2023-01-08T17:11:09.579Z,10.25
2023-01-08T17:13:37.648Z,9.15
2023-01-08T17:16:10.396Z,10.30
2023-01-08T17:18:38.151Z,10.27
2023-01-08T17:21:06.460Z,11.50
2023-01-08T17:23:34.212Z,9.73
2023-01-08T17:26:05.136Z,9.15
2023-01-08T17:28:34.975Z,11.18
2023-01-08T17:31:06.703Z,9.73
2023-01-08T17:33:40.972Z,10.88
2023-01-08T17:36:16.516Z,10.30
2023-01-08T17:38:44.347Z,10.88
2023-01-08T17:41:32.035Z,10.70
2023-01-08T17:44:00.352Z,11.73
2023-01-08T17:46:28.440Z,10.55
2023-01-08T17:48:56.514Z,10.73
2023-01-08T17:51:24.255Z,10.38
2023-01-08T17:53:51.941Z,10.43
2023-01-08T17:56:19.707Z,10.88
2023-01-08T17:58:49.201Z,10.73
2023-01-08T18:01:17.184Z,10.90
2023-01-08T18:03:45.093Z,10.98
2023-01-08T18:06:13.227Z,11.10
2023-01-08T18:08:41.599Z,10.52
2023-01-08T18:11:10.685Z,10.27
2023-01-08T18:13:38.756Z,10.25
2023-01-08T18:16:08.382Z,10.75
2023-01-08T18:18:36.301Z,9.95
2023-01-08T18:21:04.427Z,10.60
2023-01-08T18:23:32.533Z,10.23
2023-01-08T18:26:07.754Z,10.88
2023-01-08T18:28:35.737Z,11.05
2023-01-08T18:31:06.735Z,11.48
2023-01-08T18:33:37.164Z,11.27
2023-01-08T18:36:06.563Z,11.00
2023-01-08T18:38:34.623Z,11.80
2023-01-08T18:41:03.668Z,11.55
2023-01-08T18:43:35.632Z,11.68
2023-01-08T18:46:04.558Z,13.55
2023-01-08T18:48:32.545Z,12.77
2023-01-08T18:51:07.567Z,14.18
2023-01-08T18:53:35.323Z,15.23
2023-01-08T18:56:02.959Z,13.57
2023-01-08T18:58:30.581Z,13.05
2023-01-08T19:01:04.010Z,12.55
2023-01-08T19:03:31.638Z,12.13
2023-01-08T19:06:00.878Z,10.40
2023-01-08T19:08:28.808Z,10.23
2023-01-08T19:10:56.732Z,10.20
2023-01-08T19:13:24.443Z,9.23
2023-01-08T19:15:52.037Z,9.18
2023-01-08T19:18:21.317Z,8.95
2023-01-08T19:20:50.791Z,10.25
2023-01-08T19:23:18.520Z,8.52
2023-01-08T19:25:46.123Z,9.40
2023-01-08T19:28:13.897Z,8.82
2023-01-08T19:30:42.361Z,9.32
2023-01-08T19:33:10.165Z,9.18
2023-01-08T19:35:40.982Z,9.60
2023-01-08T19:38:08.663Z,10.32
2023-01-08T19:40:36.366Z,9.30
2023-01-08T19:43:22.726Z,9.93
2023-01-08T19:45:50.549Z,9.48
2023-01-08T19:48:18.398Z,10.70
2023-01-08T19:50:46.922Z,10.65
2023-01-08T19:53:14.782Z,10.30
2023-01-08T19:55:42.353Z,11.25
2023-01-08T19:58:09.937Z,10.07
2023-01-08T20:00:39.423Z,11.63
2023-01-08T20:03:07.198Z,10.82
2023-01-08T20:05:34.895Z,11.02
2023-01-08T20:08:02.940Z,11.20
2023-01-08T20:10:31.679Z,10.60
2023-01-08T20:12:59.359Z,11.38
2023-01-08T20:15:28.955Z,10.57
2023-01-08T20:17:56.953Z,10.95
2023-01-08T20:20:24.829Z,9.73
2023-01-08T20:22:52.826Z,11.45
2023-01-08T20:25:20.581Z,9.10
2023-01-08T20:27:48.284Z,11.77
2023-01-08T20:30:16.015Z,10.35
2023-01-08T20:32:43.715Z,11.30
2023-01-08T20:35:11.775Z,11.00
2023-01-08T20:37:39.831Z,10.38
2023-01-08T20:40:07.718Z,11.07
2023-01-08T20:42:35.352Z,11.52
2023-01-08T20:45:03.047Z,10.85
2023-01-08T20:47:31.565Z,11.52
2023-01-08T20:49:59.528Z,11.25
2023-01-08T20:52:30.116Z,11.80
2023-01-08T20:54:57.841Z,13.77
2023-01-08T20:57:25.750Z,11.95
2023-01-08T20:59:53.365Z,14.00
2023-01-08T21:02:21.318Z,13.52
2023-01-08T21:04:50.345Z,13.40
2023-01-08T21:07:21.216Z,13.65
2023-01-08T21:09:51.252Z,14.02
2023-01-08T21:12:19.576Z,13.43
2023-01-08T21:14:47.572Z,14.73
2023-01-08T21:17:15.789Z,13.38
2023-01-08T21:19:43.460Z,13.18
2023-01-08T21:22:11.223Z,14.93
2023-01-08T21:24:38.950Z,13.80
2023-01-08T21:27:06.902Z,13.63
2023-01-08T21:29:34.515Z,14.50
2023-01-08T21:32:02.330Z,15.07
2023-01-08T21:34:30.415Z,13.38
2023-01-08T21:36:58.251Z,14.18
2023-01-08T21:39:26.075Z,14.77
2023-01-08T21:42:12.317Z,15.18
2023-01-08T21:44:58.598Z,15.13
2023-01-08T21:47:49.405Z,17.73
2023-01-08T21:50:19.078Z,16.45
2023-01-08T21:55:50.259Z,14.73
2023-01-08T21:58:20.202Z,13.77
2023-01-08T22:00:48.046Z,13.25
2023-01-08T22:03:15.763Z,13.70
2023-01-08T22:05:43.801Z,15.07
2023-01-08T22:08:18.690Z,14.45
2023-01-08T22:10:46.661Z,14.70
2023-01-08T22:13:14.681Z,14.20
2023-01-08T22:15:43.151Z,14.93
2023-01-08T22:18:14.975Z,15.45
2023-01-08T22:20:46.801Z,15.05
2023-01-08T22:23:14.550Z,14.00
2023-01-08T22:25:49.932Z,14.10
2023-01-08T22:28:17.932Z,13.57
2023-01-08T22:30:56.522Z,13.43
2023-01-08T22:33:27.494Z,12.57
2023-01-08T22:38:39.923Z,13.60
2023-01-08T22:41:15.402Z,13.30
2023-01-08T22:43:43.159Z,12.48
2023-01-08T22:46:13.302Z,12.23
2023-01-08T22:48:56.919Z,11.75
2023-01-08T22:51:27.778Z,11.40
2023-01-08T22:53:56.244Z,12.35
2023-01-08T22:56:24.182Z,10.90
2023-01-08T22:58:52.395Z,12.15
2023-01-08T23:01:22.439Z,13.20
2023-01-08T23:03:52.146Z,10.73
2023-01-08T23:06:20.996Z,11.80
2023-01-08T23:08:48.931Z,12.48
2023-01-08T23:11:17.676Z,11.73
2023-01-08T23:13:45.752Z,11.10
2023-01-08T23:16:14.211Z,12.48
2023-01-08T23:18:42.478Z,13.05
2023-01-08T23:21:14.850Z,13.15
2023-01-08T23:23:42.577Z,13.05
2023-01-08T23:26:11.623Z,13.10
2023-01-08T23:28:41.735Z,13.77
2023-01-08T23:31:10.563Z,13.00
2023-01-08T23:33:38.227Z,15.02
2023-01-08T23:36:06.446Z,14.45
2023-01-08T23:38:34.360Z,13.95
2023-01-08T23:41:05.246Z,14.43
2023-01-08T23:43:32.953Z,14.15
2023-01-08T23:46:04.420Z,14.55
2023-01-08T23:48:32.084Z,13.77
2023-01-08T23:51:05.095Z,14.10
2023-01-08T23:53:33.013Z,14.70
2023-01-08T23:56:00.629Z,16.77
2023-01-08T23:58:28.603Z,12.85
